Home > Products > Valid Products > MTR

000
SAUS45 KPIH 240152
MTRSNT
METAR KSNT 240151Z AUTO 18004KT 17/05 A3017 RMK AO1 SLP150 T01720050





000
SAUS45 KPIH 240052
MTRSNT
METAR KSNT 240051Z AUTO 17004KT 20/04 A3017 RMK AO1 SLP146 T02000039





000
SAUS45 KPIH 232352
MTRSNT
METAR KSNT 232351Z AUTO VRB06KT 21/03 A3017 RMK AO1 SLP146 T02110033
10239 20139 55005





000
SAUS45 KPIH 232253 COR
MTRSNT
METAR KSNT 232251Z AUTO 20006KT 23/03 A3017 RMK AO1 SLP138 T02280028





000
SAUS45 KPIH 232152
MTRSNT
METAR KSNT 232151Z AUTO 13006KT 22/04 A3018 RMK AO1 SLP140 T02220039





000
SAUS45 KPIH 232052
MTRSNT
METAR KSNT 232051Z AUTO 15007KT 22/04 A3019 RMK AO1 SLP141 T02170044
56011





000
SAUS45 KPIH 231952
MTRSNT
METAR KSNT 231951Z AUTO 00000KT 20/08 A3020 RMK AO1 SLP147 T02000078





000
SAUS45 KPIH 231852
MTRSNT
METAR KSNT 231851Z AUTO VRB03KT 17/08 A3022 RMK AO1 SLP161 T01720078





000
SAUS45 KPIH 231752
MTRSNT
METAR KSNT 231751Z AUTO VRB03KT 14/07 A3023 RMK AO1 SLP171 T01390072
10139 20022 58007





000
SAUS45 KPIH 231652
MTRSNT
METAR KSNT 231651Z AUTO 34003KT 09/06 A3025 RMK AO1 SLP186 T00890061





000
SAUS45 KPIH 231552
MTRSNT
METAR KSNT 231551Z AUTO 00000KT 06/05 A3026 RMK AO1 SLP192 T00560050





000
SAUS45 KPIH 231453
MTRSNT
METAR KSNT 231451Z AUTO 07003KT 04/03 A3026 RMK AO1 SLP188 T00440033
53006





000
SAUS45 KPIH 231352
MTRSNT
METAR KSNT 231351Z AUTO 09004KT 03/02 A3026 RMK AO1 SLP187 T00280017





000
SAUS45 KPIH 231252
MTRSNT
METAR KSNT 231251Z AUTO 00000KT 02/02 A3024 RMK AO1 SLP175 T00220017





000
SAUS45 KPIH 231152
MTRSNT
METAR KSNT 231151Z AUTO 18005KT 02/02 A3024 RMK AO1 SLP175 70003
T00220017 10089 20022 58002





000
SAUS45 KPIH 231052
MTRSNT
METAR KSNT 231051Z AUTO 00000KT 04/03 A3024 RMK AO1 SLP169 T00390033





000
SAUS45 KPIH 230952
MTRSNT
METAR KSNT 230951Z AUTO 00000KT 04/04 A3024 RMK AO1 SLP169 T00440039





000
SAUS45 KPIH 230852
MTRSNT
METAR KSNT 230851Z AUTO 00000KT 06/04 A3024 RMK AO1 SLP173 T00560044
50005





000
SAUS45 KPIH 230753
MTRSNT
METAR KSNT 230751Z AUTO 00000KT 06/05 A3025 RMK AO1 SLP175 T00610050





000
SAUS45 KPIH 230652
MTRSNT
METAR KSNT 230651Z AUTO 00000KT 06/04 A3024 RMK AO1 SLP173 T00610044
401890061





000
SAUS45 KPIH 230552
MTRSNT
METAR KSNT 230551Z AUTO 19004KT 07/05 A3023 RMK AO1 SLP169 T00720050
10178 20067 53004





000
SAUS45 KPIH 230452
MTRSNT
METAR KSNT 230451Z AUTO 15003KT 08/06 A3022 RMK AO1 SLP166 T00830056





000
SAUS45 KPIH 230352
MTRSNT
METAR KSNT 230351Z AUTO 19003KT 11/07 A3021 RMK AO1 SLP158 T01110072





000
SAUS45 KPIH 230252
MTRSNT
METAR KSNT 230251Z AUTO 00000KT 13/08 A3021 RMK AO1 SLP156 T01330083
53009





000
SAUS45 KPIH 230152
MTRSNT
METAR KSNT 230151Z AUTO 00000KT 14/08 A3020 RMK AO1 SLP150 T01440083





000
SAUS45 KPIH 230052
MTRSNT
METAR KSNT 230051Z AUTO 00000KT 17/08 A3018 RMK AO1 SLP136 T01720078





000
SAUS45 KPIH 222352
MTRSNT
METAR KSNT 222351Z AUTO 01005KT 17/08 A3018 RMK AO1 SLP138 T01720083
10189 20133 55007





000
SAUS45 KPIH 222252
MTRSNT
METAR KSNT 222251Z AUTO VRB04KT 19/08 A3018 RMK AO1 SLP130 T01890078





000
SAUS45 KPIH 222153 COR
MTRSNT
METAR KSNT 222151Z AUTO 18008KT 18/08 A3019 RMK AO1 SLP134 T01830083





000
SAUS45 KPIH 222052
MTRSNT
METAR KSNT 222051Z AUTO 15007KT 16/09 A3020 RMK AO1 SLP146 T01610089
56005





000
SAUS45 KPIH 221953
MTRSNT
METAR KSNT 221951Z AUTO 00000KT 16/08 A3021 RMK AO1 SLP144 T01610078





000
SAUS45 KPIH 221852
MTRSNT
METAR KSNT 221851Z AUTO 00000KT 14/08 A3022 RMK AO1 SLP148 T01440083





000
SAUS45 KPIH 221752
MTRSNT
METAR KSNT 221751Z AUTO 34003KT 13/09 A3022 RMK AO1 SLP153 60003
T01330094 10139 20100 51007





000
SAUS45 KPIH 221652
MTRSNT
METAR KSNT 221651Z AUTO 00000KT 13/10 A3022 RMK AO1 SLP152 T01330100





000
SAUS45 KPIH 221552
MTRSNT
METAR KSNT 221551Z AUTO 00000KT 12/10 A3022 RMK AO1 SLP152 T01170100





000
SAUS45 KPIH 221452
MTRSNT
METAR KSNT 221451Z AUTO 17007KT 11/09 A3020 RMK AO1 SLP148 P0001
60003 T01060094 50001





000
SAUS45 KPIH 221352
MTRSNT
METAR KSNT 221351Z AUTO 00000KT 10/09 A3021 RMK AO1 SLP151 P0002
T01000094





000
SAUS45 KPIH 221252
MTRSNT
METAR KSNT 221251Z AUTO 35004KT 10/09 A3020 RMK AO1 SLP138 T01000094





000
SAUS45 KPIH 221152
MTRSNT
METAR KSNT 221151Z AUTO 18003KT 10/09 A3019 RMK AO1 SLP135 P0001
60004 70004 T01000089 10144 20100 56003





000
SAUS45 KPIH 221052
MTRSNT
METAR KSNT 221051Z AUTO 00000KT 11/09 A3019 RMK AO1 SLP132 P0001
T01060094





000
SAUS45 KPIH 220952
MTRSNT
METAR KSNT 220951Z AUTO 11005KT 11/09 A3020 RMK AO1 SLP134 P0002
T01110094





000
SAUS45 KPIH 220852
MTRSNT
METAR KSNT 220851Z AUTO 00000KT 12/09 A3020 RMK AO1 SLP130 T01170089
53008





000
SAUS45 KPIH 220752
MTRSNT
METAR KSNT 220751Z AUTO 14005KT 12/08 A3019 RMK AO1 SLP123 T01220083





000
SAUS45 KPIH 220652
MTRSNT
METAR KSNT 220651Z AUTO 13006KT 14/07 A3018 RMK AO1 SLP120 T01390072
402330011





000
SAUS45 KPIH 220552
MTRSNT
METAR KSNT 220551Z AUTO 13004KT 14/05 A3017 RMK AO1 SLP125 T01390050
10217 20128 51000





000
SAUS45 KPIH 220452
MTRSNT
METAR KSNT 220451Z AUTO 16004KT 14/05 A3017 RMK AO1 SLP133 T01440050





000
SAUS45 KPIH 220352
MTRSNT
METAR KSNT 220351Z AUTO 14005KT 15/04 A3018 RMK AO1 SLP140 T01500039





000
SAUS45 KPIH 220252
MTRSNT
METAR KSNT 220251Z AUTO 19003KT 15/04 A3017 RMK AO1 SLP153 T01500044
53000





000
SAUS45 KPIH 220152
MTRSNT
METAR KSNT 220151Z AUTO 00000KT 17/04 A3016 RMK AO1 SLP148 T01670044





000
SAUS45 KPIH 220052
MTRSNT
METAR KSNT 220051Z AUTO 33004KT 21/04 A3017 RMK AO1 SLP143 T02060039





000
SAUS45 KPIH 212352
MTRSNT
METAR KSNT 212351Z AUTO 07004KT 21/03 A3017 RMK AO1 SLP142 T02110028
10233 20183 58004





000
SAUS45 KPIH 212252
MTRSNT
METAR KSNT 212251Z AUTO 18004KT 21/03 A3018 RMK AO1 SLP146 T02110028





000
SAUS45 KPIH 212152
MTRSNT
METAR KSNT 212151Z AUTO 10008KT 21/02 A3019 RMK AO1 SLP149 T02060022





000
SAUS45 KPIH 212052
MTRSNT
METAR KSNT 212051Z AUTO 33004KT 23/02 A3019 RMK AO1 SLP140 T02280022
56020





000
SAUS45 KPIH 211952
MTRSNT
METAR KSNT 211951Z AUTO 35004KT 23/03 A3020 RMK AO1 SLP141 T02280033





000
SAUS45 KPIH 211852
MTRSNT
METAR KSNT 211851Z AUTO 34005KT 21/04 A3023 RMK AO1 SLP152 T02110039





000
SAUS45 KPIH 211752
MTRSNT
METAR KSNT 211751Z AUTO 36005KT 18/03 A3026 RMK AO1 SLP168 T01780033
10178 20011 58012





000
SAUS45 KPIH 211652
MTRSNT
METAR KSNT 211651Z AUTO 35005KT 13/03 A3028 RMK AO1 SLP183 T01280033





000
SAUS45 KPIH 211552
MTRSNT
METAR KSNT 211551Z AUTO 04003KT 11/02 A3029 RMK AO1 SLP187 T01110022





000
SAUS45 KPIH 211452
MTRSNT
METAR KSNT 211451Z AUTO 00000KT 05/01 A3030 RMK AO1 SLP198 T00500011
53005





000
SAUS45 KPIH 211352
MTRSNT
METAR KSNT 211351Z AUTO 12003KT 03/01 A3030 RMK AO1 SLP196 T00280006





000
SAUS45 KPIH 211252
MTRSNT
METAR KSNT 211251Z AUTO 14004KT 02/00 A3028 RMK AO1 SLP177 T00220000





000
SAUS45 KPIH 211152
MTRSNT
METAR KSNT 211151Z AUTO 00000KT 03/00 A3028 RMK AO1 SLP170 T00280000
10089 20022 58004





000
SAUS45 KPIH 211052
MTRSNT
METAR KSNT 211051Z AUTO 00000KT 03/00 A3029 RMK AO1 SLP171 T00280000





000
SAUS45 KPIH 210952
MTRSNT
METAR KSNT 210951Z AUTO 00000KT 03/00 A3030 RMK AO1 SLP172 T00330000





000
SAUS45 KPIH 210852
MTRSNT
METAR KSNT 210851Z AUTO 00000KT 05/01 A3030 RMK AO1 SLP170 T00500006
52004





000
SAUS45 KPIH 210753
MTRSNT
METAR KSNT 210751Z AUTO 00000KT 06/01 A3029 RMK AO1 SLP170 T00610011





000
SAUS45 KPIH 210652
MTRSNT
METAR KSNT 210651Z AUTO 00000KT 08/01 A3028 RMK AO1 SLP171 T00780011
402721011





000
SAUS45 KPIH 210552
MTRSNT
METAR KSNT 210551Z AUTO 00000KT 09/02 A3028 RMK AO1 SLP178 T00890017
10261 20089 51011





000
SAUS45 KPIH 210452
MTRSNT
METAR KSNT 210451Z AUTO 00000KT 11/02 A3028 RMK AO1 SLP183 T01060022





000
SAUS45 KPIH 210352
MTRSNT
METAR KSNT 210351Z AUTO 16004KT 12/02 A3026 RMK AO1 SLP182 T01170022





000
SAUS45 KPIH 210252
MTRSNT
METAR KSNT 210251Z AUTO 00000KT 14/02 A3024 RMK AO1 SLP183 T01440022
53006





    US Dept of Commerce
    National Oceanic and Atmospheric Administration
    National Weather Service
    1325 East West Highway
    Silver Spring, MD 20910
    Page Author: NWS Internet Services Team
Disclaimer
Information Quality
Credits
Glossary
Privacy Policy
Freedom of Information Act (FOIA)
About Us
Career Opportunities